sensor_id;sensor_type;location;lat;lon;timestamp;P1;durP1;ratioP1;P2;durP2;ratioP2
16137;SDS011;8174;43.550;5.206;2023-04-29T15:16:53;2.90;;;1.10;;
16137;SDS011;8174;43.550;5.206;2023-04-29T15:19:21;1.50;;;1.05;;
16137;SDS011;8174;43.550;5.206;2023-04-29T15:21:49;1.65;;;1.10;;
16137;SDS011;8174;43.550;5.206;2023-04-29T15:24:16;1.33;;;1.00;;
16137;SDS011;8174;43.550;5.206;2023-04-29T15:26:43;1.27;;;1.17;;
16137;SDS011;8174;43.550;5.206;2023-04-29T15:29:11;4.07;;;1.13;;
16137;SDS011;8174;43.550;5.206;2023-04-29T15:31:38;1.92;;;1.15;;
16137;SDS011;8174;43.550;5.206;2023-04-29T15:34:07;2.05;;;0.98;;
16137;SDS011;8174;43.550;5.206;2023-04-29T15:36:34;3.78;;;1.10;;
16137;SDS011;8174;43.550;5.206;2023-04-29T15:39:02;3.08;;;1.00;;
16137;SDS011;8174;43.550;5.206;2023-04-29T15:41:32;1.40;;;1.02;;
16137;SDS011;8174;43.550;5.206;2023-04-29T15:44:00;1.92;;;1.00;;
16137;SDS011;8174;43.550;5.206;2023-04-29T15:46:28;3.22;;;1.40;;
16137;SDS011;8174;43.550;5.206;2023-04-29T15:48:56;3.15;;;1.30;;
16137;SDS011;8174;43.550;5.206;2023-04-29T15:51:24;2.70;;;1.20;;
16137;SDS011;8174;43.550;5.206;2023-04-29T15:53:52;3.35;;;1.70;;
16137;SDS011;8174;43.550;5.206;2023-04-29T15:56:19;4.80;;;2.03;;
16137;SDS011;8174;43.550;5.206;2023-04-29T15:58:46;3.95;;;2.10;;
16137;SDS011;8174;43.550;5.206;2023-04-29T16:01:14;3.60;;;2.10;;
16137;SDS011;8174;43.550;5.206;2023-04-29T16:03:41;3.17;;;1.98;;
16137;SDS011;8174;43.550;5.206;2023-04-29T16:06:08;3.55;;;2.10;;
16137;SDS011;8174;43.550;5.206;2023-04-29T16:08:37;7.85;;;2.30;;
16137;SDS011;8174;43.550;5.206;2023-04-29T16:11:04;5.30;;;2.70;;
16137;SDS011;8174;43.550;5.206;2023-04-29T16:13:31;8.13;;;2.40;;
16137;SDS011;8174;43.550;5.206;2023-04-29T16:15:59;5.82;;;2.50;;
16137;SDS011;8174;43.550;5.206;2023-04-29T16:18:26;4.10;;;2.22;;
16137;SDS011;8174;43.550;5.206;2023-04-29T16:20:53;5.50;;;2.80;;
16137;SDS011;8174;43.550;5.206;2023-04-29T16:23:21;7.00;;;2.75;;
16137;SDS011;8174;43.550;5.206;2023-04-29T16:25:49;5.18;;;2.63;;
16137;SDS011;8174;43.550;5.206;2023-04-29T16:28:17;7.82;;;2.80;;
16137;SDS011;8174;43.550;5.206;2023-04-29T16:30:45;4.85;;;2.78;;
16137;SDS011;8174;43.550;5.206;2023-04-29T16:33:12;4.65;;;2.53;;
16137;SDS011;8174;43.550;5.206;2023-04-29T16:35:40;4.38;;;2.40;;
16137;SDS011;8174;43.550;5.206;2023-04-29T16:38:08;6.15;;;2.88;;
16137;SDS011;8174;43.550;5.206;2023-04-29T16:40:35;6.57;;;3.35;;
16137;SDS011;8174;43.550;5.206;2023-04-29T16:43:05;10.85;;;4.70;;
16137;SDS011;8174;43.550;5.206;2023-04-29T16:45:32;8.00;;;3.03;;
16137;SDS011;8174;43.550;5.206;2023-04-29T16:47:59;6.95;;;3.20;;
16137;SDS011;8174;43.550;5.206;2023-04-29T16:50:26;8.13;;;3.15;;
16137;SDS011;8174;43.550;5.206;2023-04-29T16:52:54;8.00;;;3.17;;
16137;SDS011;8174;43.550;5.206;2023-04-29T16:55:21;7.03;;;3.00;;
16137;SDS011;8174;43.550;5.206;2023-04-29T16:57:48;8.60;;;2.58;;
16137;SDS011;8174;43.550;5.206;2023-04-29T17:00:17;6.93;;;2.90;;
16137;SDS011;8174;43.550;5.206;2023-04-29T17:02:45;10.63;;;3.05;;
16137;SDS011;8174;43.550;5.206;2023-04-29T17:05:12;7.88;;;2.97;;
16137;SDS011;8174;43.550;5.206;2023-04-29T17:07:40;9.68;;;3.65;;
16137;SDS011;8174;43.550;5.206;2023-04-29T17:10:07;6.85;;;3.80;;
16137;SDS011;8174;43.550;5.206;2023-04-29T17:12:35;9.32;;;4.10;;
16137;SDS011;8174;43.550;5.206;2023-04-29T17:15:03;9.10;;;4.40;;
16137;SDS011;8174;43.550;5.206;2023-04-29T17:17:34;7.45;;;3.92;;
16137;SDS011;8174;43.550;5.206;2023-04-29T17:20:02;6.78;;;4.00;;
16137;SDS011;8174;43.550;5.206;2023-04-29T17:22:29;8.75;;;3.97;;
16137;SDS011;8174;43.550;5.206;2023-04-29T17:24:57;8.60;;;4.10;;
16137;SDS011;8174;43.550;5.206;2023-04-29T17:27:24;6.80;;;3.22;;
16137;SDS011;8174;43.550;5.206;2023-04-29T17:29:52;9.68;;;3.83;;
16137;SDS011;8174;43.550;5.206;2023-04-29T17:32:19;7.45;;;4.18;;
16137;SDS011;8174;43.550;5.206;2023-04-29T17:34:53;7.82;;;3.60;;
16137;SDS011;8174;43.550;5.206;2023-04-29T17:37:21;7.80;;;3.47;;
16137;SDS011;8174;43.550;5.206;2023-04-29T17:39:50;6.63;;;3.80;;
16137;SDS011;8174;43.550;5.206;2023-04-29T17:42:17;9.43;;;3.90;;
16137;SDS011;8174;43.550;5.206;2023-04-29T17:44:45;7.35;;;3.70;;
16137;SDS011;8174;43.550;5.206;2023-04-29T17:47:12;12.48;;;3.60;;
16137;SDS011;8174;43.550;5.206;2023-04-29T17:49:41;8.50;;;3.75;;
16137;SDS011;8174;43.550;5.206;2023-04-29T17:52:10;8.82;;;3.80;;
16137;SDS011;8174;43.550;5.206;2023-04-29T17:54:38;8.13;;;4.28;;
16137;SDS011;8174;43.550;5.206;2023-04-29T17:57:05;5.57;;;3.80;;
16137;SDS011;8174;43.550;5.206;2023-04-29T17:59:33;8.63;;;4.20;;
16137;SDS011;8174;43.550;5.206;2023-04-29T18:02:00;8.90;;;4.22;;
16137;SDS011;8174;43.550;5.206;2023-04-29T18:04:27;12.73;;;4.47;;
16137;SDS011;8174;43.550;5.206;2023-04-29T18:06:55;8.27;;;4.15;;
16137;SDS011;8174;43.550;5.206;2023-04-29T18:09:23;8.35;;;4.20;;
16137;SDS011;8174;43.550;5.206;2023-04-29T18:11:51;12.57;;;6.05;;
16137;SDS011;8174;43.550;5.206;2023-04-29T18:14:18;8.68;;;4.78;;
16137;SDS011;8174;43.550;5.206;2023-04-29T18:16:46;11.63;;;4.55;;
16137;SDS011;8174;43.550;5.206;2023-04-29T18:19:13;11.43;;;5.50;;
16137;SDS011;8174;43.550;5.206;2023-04-29T18:21:40;9.80;;;5.50;;
16137;SDS011;8174;43.550;5.206;2023-04-29T18:24:07;11.73;;;5.80;;
16137;SDS011;8174;43.550;5.206;2023-04-29T18:26:36;8.57;;;6.20;;
16137;SDS011;8174;43.550;5.206;2023-04-29T18:29:04;8.27;;;5.00;;
16137;SDS011;8174;43.550;5.206;2023-04-29T18:31:31;8.48;;;5.50;;
16137;SDS011;8174;43.550;5.206;2023-04-29T18:33:58;10.10;;;5.32;;
16137;SDS011;8174;43.550;5.206;2023-04-29T18:36:26;14.18;;;5.35;;
16137;SDS011;8174;43.550;5.206;2023-04-29T18:38:53;10.40;;;4.95;;
16137;SDS011;8174;43.550;5.206;2023-04-29T18:41:20;9.60;;;5.15;;
16137;SDS011;8174;43.550;5.206;2023-04-29T18:43:49;10.25;;;5.53;;
16137;SDS011;8174;43.550;5.206;2023-04-29T18:46:17;12.38;;;5.32;;
16137;SDS011;8174;43.550;5.206;2023-04-29T18:48:44;10.13;;;5.35;;
16137;SDS011;8174;43.550;5.206;2023-04-29T18:51:12;12.52;;;5.65;;
16137;SDS011;8174;43.550;5.206;2023-04-29T18:53:39;11.10;;;5.45;;
16137;SDS011;8174;43.550;5.206;2023-04-29T18:56:06;9.02;;;5.60;;
16137;SDS011;8174;43.550;5.206;2023-04-29T18:58:34;11.85;;;6.50;;
16137;SDS011;8174;43.550;5.206;2023-04-29T19:01:02;9.43;;;6.30;;
16137;SDS011;8174;43.550;5.206;2023-04-29T19:03:30;12.65;;;6.22;;
16137;SDS011;8174;43.550;5.206;2023-04-29T19:05:57;12.50;;;6.80;;
16137;SDS011;8174;43.550;5.206;2023-04-29T19:08:25;11.45;;;6.65;;
16137;SDS011;8174;43.550;5.206;2023-04-29T19:10:52;10.10;;;6.28;;
16137;SDS011;8174;43.550;5.206;2023-04-29T19:13:20;10.50;;;6.00;;
16137;SDS011;8174;43.550;5.206;2023-04-29T19:15:47;10.52;;;6.00;;
16137;SDS011;8174;43.550;5.206;2023-04-29T19:18:18;14.98;;;6.32;;
16137;SDS011;8174;43.550;5.206;2023-04-29T19:20:47;14.77;;;6.60;;
16137;SDS011;8174;43.550;5.206;2023-04-29T19:23:14;11.32;;;6.68;;
16137;SDS011;8174;43.550;5.206;2023-04-29T19:25:42;11.90;;;6.40;;
16137;SDS011;8174;43.550;5.206;2023-04-29T19:28:10;14.60;;;7.28;;
16137;SDS011;8174;43.550;5.206;2023-04-29T19:30:37;14.95;;;7.63;;
16137;SDS011;8174;43.550;5.206;2023-04-29T19:33:04;12.45;;;7.65;;
16137;SDS011;8174;43.550;5.206;2023-04-29T19:35:34;18.05;;;8.80;;
16137;SDS011;8174;43.550;5.206;2023-04-29T19:38:01;12.40;;;7.53;;
16137;SDS011;8174;43.550;5.206;2023-04-29T19:40:28;15.90;;;8.20;;
16137;SDS011;8174;43.550;5.206;2023-04-29T19:42:56;15.60;;;10.40;;
16137;SDS011;8174;43.550;5.206;2023-04-29T19:45:23;9.95;;;6.35;;
16137;SDS011;8174;43.550;5.206;2023-04-29T19:47:51;12.05;;;7.20;;
16137;SDS011;8174;43.550;5.206;2023-04-29T19:50:19;9.80;;;6.25;;
16137;SDS011;8174;43.550;5.206;2023-04-29T19:52:48;13.27;;;6.78;;
16137;SDS011;8174;43.550;5.206;2023-04-29T19:55:15;10.68;;;6.35;;
16137;SDS011;8174;43.550;5.206;2023-04-29T19:57:43;11.75;;;6.50;;
16137;SDS011;8174;43.550;5.206;2023-04-29T20:00:10;12.48;;;6.30;;
16137;SDS011;8174;43.550;5.206;2023-04-29T20:02:38;11.20;;;7.95;;
16137;SDS011;8174;43.550;5.206;2023-04-29T20:05:06;18.77;;;11.75;;
16137;SDS011;8174;43.550;5.206;2023-04-29T20:07:34;14.73;;;9.05;;
16137;SDS011;8174;43.550;5.206;2023-04-29T20:10:03;14.60;;;9.05;;
16137;SDS011;8174;43.550;5.206;2023-04-29T20:12:31;13.23;;;8.75;;
16137;SDS011;8174;43.550;5.206;2023-04-29T20:14:59;12.05;;;8.57;;
16137;SDS011;8174;43.550;5.206;2023-04-29T20:17:29;17.27;;;9.95;;
16137;SDS011;8174;43.550;5.206;2023-04-29T20:19:57;16.63;;;8.75;;
16137;SDS011;8174;43.550;5.206;2023-04-29T20:22:24;13.75;;;9.07;;
16137;SDS011;8174;43.550;5.206;2023-04-29T20:24:51;13.48;;;8.38;;
16137;SDS011;8174;43.550;5.206;2023-04-29T20:27:20;12.82;;;8.57;;
16137;SDS011;8174;43.550;5.206;2023-04-29T20:29:47;12.50;;;7.78;;
16137;SDS011;8174;43.550;5.206;2023-04-29T20:32:15;16.13;;;8.98;;
16137;SDS011;8174;43.550;5.206;2023-04-29T20:34:42;16.80;;;8.85;;
16137;SDS011;8174;43.550;5.206;2023-04-29T20:37:09;14.75;;;9.10;;
16137;SDS011;8174;43.550;5.206;2023-04-29T20:39:37;19.10;;;11.85;;
16137;SDS011;8174;43.550;5.206;2023-04-29T20:42:04;16.00;;;8.75;;
16137;SDS011;8174;43.550;5.206;2023-04-29T20:44:33;13.20;;;8.48;;
16137;SDS011;8174;43.550;5.206;2023-04-29T20:47:00;13.23;;;8.32;;
16137;SDS011;8174;43.550;5.206;2023-04-29T20:49:28;12.55;;;8.02;;
16137;SDS011;8174;43.550;5.206;2023-04-29T20:51:56;16.15;;;10.20;;
16137;SDS011;8174;43.550;5.206;2023-04-29T20:54:23;15.13;;;9.13;;
16137;SDS011;8174;43.550;5.206;2023-04-29T20:56:51;18.70;;;11.77;;
16137;SDS011;8174;43.550;5.206;2023-04-29T20:59:18;18.10;;;9.50;;
16137;SDS011;8174;43.550;5.206;2023-04-29T21:01:47;17.15;;;8.82;;
16137;SDS011;8174;43.550;5.206;2023-04-29T21:04:14;17.23;;;9.23;;
16137;SDS011;8174;43.550;5.206;2023-04-29T21:06:41;15.45;;;9.30;;
16137;SDS011;8174;43.550;5.206;2023-04-29T21:09:08;17.73;;;9.60;;
16137;SDS011;8174;43.550;5.206;2023-04-29T21:11:37;17.70;;;8.85;;
16137;SDS011;8174;43.550;5.206;2023-04-29T21:14:04;16.60;;;8.98;;
16137;SDS011;8174;43.550;5.206;2023-04-29T21:16:31;15.98;;;9.13;;
16137;SDS011;8174;43.550;5.206;2023-04-29T21:19:00;17.83;;;9.38;;
16137;SDS011;8174;43.550;5.206;2023-04-29T21:21:28;16.33;;;9.48;;
16137;SDS011;8174;43.550;5.206;2023-04-29T21:23:55;13.88;;;8.77;;
16137;SDS011;8174;43.550;5.206;2023-04-29T21:26:23;15.93;;;9.40;;
16137;SDS011;8174;43.550;5.206;2023-04-29T21:28:50;14.73;;;9.40;;
16137;SDS011;8174;43.550;5.206;2023-04-29T21:31:18;15.30;;;8.45;;
16137;SDS011;8174;43.550;5.206;2023-04-29T21:33:45;18.20;;;8.70;;
16137;SDS011;8174;43.550;5.206;2023-04-29T21:36:14;15.88;;;9.05;;
16137;SDS011;8174;43.550;5.206;2023-04-29T21:38:41;15.18;;;9.13;;
16137;SDS011;8174;43.550;5.206;2023-04-29T21:41:21;9.95;;;7.88;;
16137;SDS011;8174;43.550;5.206;2023-04-29T21:43:50;15.65;;;9.13;;
16137;SDS011;8174;43.550;5.206;2023-04-29T21:46:18;14.30;;;7.43;;
16137;SDS011;8174;43.550;5.206;2023-04-29T21:48:45;11.02;;;7.82;;
16137;SDS011;8174;43.550;5.206;2023-04-29T21:51:14;12.45;;;7.60;;
16137;SDS011;8174;43.550;5.206;2023-04-29T21:53:43;13.13;;;7.75;;
16137;SDS011;8174;43.550;5.206;2023-04-29T21:56:10;16.50;;;8.13;;
16137;SDS011;8174;43.550;5.206;2023-04-29T21:58:37;13.38;;;8.20;;
16137;SDS011;8174;43.550;5.206;2023-04-29T22:01:05;12.02;;;8.00;;
16137;SDS011;8174;43.550;5.206;2023-04-29T22:03:50;13.05;;;7.07;;
16137;SDS011;8174;43.550;5.206;2023-04-29T22:06:19;9.20;;;6.70;;
16137;SDS011;8174;43.550;5.206;2023-04-29T22:08:46;12.25;;;7.15;;
16137;SDS011;8174;43.550;5.206;2023-04-29T22:11:13;15.30;;;7.32;;
16137;SDS011;8174;43.550;5.206;2023-04-29T22:13:40;10.20;;;6.95;;
16137;SDS011;8174;43.550;5.206;2023-04-29T22:16:09;12.13;;;7.10;;
16137;SDS011;8174;43.550;5.206;2023-04-29T22:18:37;12.82;;;7.15;;
16137;SDS011;8174;43.550;5.206;2023-04-29T22:21:04;13.60;;;7.63;;
16137;SDS011;8174;43.550;5.206;2023-04-29T22:23:33;10.27;;;6.82;;
16137;SDS011;8174;43.550;5.206;2023-04-29T22:26:00;12.95;;;6.72;;
16137;SDS011;8174;43.550;5.206;2023-04-29T22:28:27;13.10;;;6.20;;
16137;SDS011;8174;43.550;5.206;2023-04-29T22:30:55;11.00;;;7.10;;
16137;SDS011;8174;43.550;5.206;2023-04-29T22:33:22;13.43;;;6.30;;
16137;SDS011;8174;43.550;5.206;2023-04-29T22:35:49;12.25;;;6.38;;
16137;SDS011;8174;43.550;5.206;2023-04-29T22:38:17;12.45;;;6.15;;
16137;SDS011;8174;43.550;5.206;2023-04-29T22:40:49;11.13;;;6.28;;
16137;SDS011;8174;43.550;5.206;2023-04-29T22:43:16;9.07;;;6.10;;
16137;SDS011;8174;43.550;5.206;2023-04-29T22:45:49;12.95;;;6.32;;
16137;SDS011;8174;43.550;5.206;2023-04-29T22:48:17;12.30;;;5.65;;
16137;SDS011;8174;43.550;5.206;2023-04-29T22:50:48;13.43;;;6.10;;
16137;SDS011;8174;43.550;5.206;2023-04-29T22:53:16;12.68;;;6.50;;
16137;SDS011;8174;43.550;5.206;2023-04-29T22:55:48;11.02;;;6.35;;
16137;SDS011;8174;43.550;5.206;2023-04-29T22:58:16;8.55;;;5.70;;
16137;SDS011;8174;43.550;5.206;2023-04-29T23:00:43;11.25;;;6.32;;
16137;SDS011;8174;43.550;5.206;2023-04-29T23:03:10;10.80;;;6.15;;
16137;SDS011;8174;43.550;5.206;2023-04-29T23:05:38;10.48;;;6.38;;
16137;SDS011;8174;43.550;5.206;2023-04-29T23:08:05;10.43;;;6.20;;
16137;SDS011;8174;43.550;5.206;2023-04-29T23:10:32;14.82;;;6.57;;
16137;SDS011;8174;43.550;5.206;2023-04-29T23:13:01;11.15;;;5.80;;
16137;SDS011;8174;43.550;5.206;2023-04-29T23:15:29;9.40;;;5.75;;
16137;SDS011;8174;43.550;5.206;2023-04-29T23:17:56;8.52;;;5.80;;
16137;SDS011;8174;43.550;5.206;2023-04-29T23:20:24;11.02;;;5.85;;
16137;SDS011;8174;43.550;5.206;2023-04-29T23:22:51;8.65;;;5.72;;
16137;SDS011;8174;43.550;5.206;2023-04-29T23:25:18;11.95;;;5.90;;
16137;SDS011;8174;43.550;5.206;2023-04-29T23:27:46;9.95;;;6.10;;
16137;SDS011;8174;43.550;5.206;2023-04-29T23:30:14;8.90;;;5.70;;
16137;SDS011;8174;43.550;5.206;2023-04-29T23:32:42;8.68;;;5.60;;
16137;SDS011;8174;43.550;5.206;2023-04-29T23:35:09;8.82;;;5.75;;
16137;SDS011;8174;43.550;5.206;2023-04-29T23:37:37;8.32;;;5.50;;
16137;SDS011;8174;43.550;5.206;2023-04-29T23:40:04;10.00;;;5.88;;
16137;SDS011;8174;43.550;5.206;2023-04-29T23:42:33;9.07;;;5.35;;
16137;SDS011;8174;43.550;5.206;2023-04-29T23:45:00;9.98;;;5.57;;
16137;SDS011;8174;43.550;5.206;2023-04-29T23:47:29;9.07;;;5.60;;
16137;SDS011;8174;43.550;5.206;2023-04-29T23:49:56;10.05;;;5.50;;
16137;SDS011;8174;43.550;5.206;2023-04-29T23:52:24;9.82;;;5.60;;
16137;SDS011;8174;43.550;5.206;2023-04-29T23:54:51;9.10;;;5.15;;
16137;SDS011;8174;43.550;5.206;2023-04-29T23:57:18;8.52;;;5.38;;
16137;SDS011;8174;43.550;5.206;2023-04-29T23:59:45;9.88;;;5.40;;
